M I D A S
Marine Information and Data Acquisition System
Tripno 810 of the Zeeleeuw from 2004-11-22 08:19:51 to 2004-11-22 14:09:12
Back to CruiseResearch ActivitiesStationsMapUnderway DataData graphs

EquipmentUnitsComment
TimeDGPSUTC
LatitudeDGPSDM.mWGS84
LongitudeDGPSDM.mWGS84
TemperatureSBE03/SBE38deg celciusITS90
ConductivitySBE21S/mITS90
SalinitySBE21 Practical Salinity Units
ChlorophylAChelsea fluorimeterg/lCalibrated in Aceton
Missing or incorrect values are displayed as -999
Sea surface data collected by the RV Zeeleeuw from 2004-11-22 08:21:17 to 2004-11-22 14:15:54
Time Latitude Longitude Temperature Conductivity Salinity ChlorophylA
2004-11-22 08:22:24 51°13.614 2°56.049 13.931176 0.065241 0.404353 -0.916087
2004-11-22 08:23:31 51°13.624 2°56.014 13.885839 0.065241 0.403885 -0.882377
2004-11-22 08:24:34 51°13.653 2°55.927 13.934188 0.065241 0.404192 -0.882377
2004-11-22 08:25:51 51°13.675 2°55.776 14.021617 0.065241 0.404238 -0.882377
2004-11-22 08:26:58 51°13.679 2°55.764 13.973855 0.065241 0.404223 -0.882377
2004-11-22 08:28:04 51°13.722 2°55.727 13.988235 0.065241 0.404176 -0.916087
2004-11-22 08:29:04 51°13.83 2°55.635 13.937199 0.065241 0.404176 -0.916087
2004-11-22 08:30:02 51°13.956 2°55.542 13.961336 0.065241 0.40413 -0.882377
2004-11-22 08:31:32 51°14.164 2°55.38 13.935335 0.065241 0.404084 -0.916087
2004-11-22 08:32:41 51°14.312 2°55.179 14.143403 0.065241 0.404061 -0.882377
2004-11-22 08:33:42 51°14.43 2°54.975 14.06863 0.065241 0.404046 -0.916087
2004-11-22 08:34:48 51°14.468 2°54.717 13.821418 0.065241 0.403977 -0.916087
2004-11-22 08:35:47 51°14.432 2°54.469 13.831952 0.065345 0.40462 -0.916087
2004-11-22 08:36:48 51°14.345 2°54.217 13.861677 0.065345 0.404582 -0.882377
2004-11-22 08:38:08 51°14.223 2°53.859 13.879477 0.065345 0.404544 -0.916087
2004-11-22 08:39:26 51°14.106 2°53.51 13.850669 0.065345 0.404505 -0.916087
2004-11-22 08:40:48 51°13.984 2°53.136 13.8207 0.065345 0.404474 -0.916087
2004-11-22 08:42:08 51°13.871 2°52.78 13.862586 0.065345 0.404459 -0.916087
2004-11-22 08:43:13 51°13.779 2°52.493 13.890384 0.065345 0.404444 -0.916087
2004-11-22 08:44:18 51°13.686 2°52.204 13.865601 0.065345 0.404436 -0.882377
2004-11-22 08:45:39 51°13.57 2°51.837 13.919701 0.065345 0.404413 -0.882377
2004-11-22 08:46:58 51°13.454 2°51.482 13.908177 0.065345 0.40439 -0.882377
2004-11-22 08:48:07 51°13.353 2°51.168 13.907172 0.065345 0.404375 -0.882377
2004-11-22 08:49:22 51°13.241 2°50.83 13.956318 0.065345 0.404367 -0.882377
2004-11-22 08:50:26 51°13.134 2°50.549 13.962196 0.065345 0.404352 -0.916087
2004-11-22 08:51:46 51°13.001 2°50.197 13.964203 0.065345 0.404329 -0.882377
2004-11-22 08:53:00 51°12.879 2°49.869 13.989954 0.065345 0.404329 -0.882377
2004-11-22 08:54:06 51°12.769 2°49.576 13.99368 0.065345 0.404306 -0.882377
2004-11-22 08:55:05 51°12.672 2°49.316 14.004761 0.065345 0.404321 -0.848668
2004-11-22 08:56:30 51°12.531 2°48.936 14.033647 0.065345 0.40429 -0.882377
2004-11-22 08:58:00 51°12.381 2°48.536 14.053408 0.065345 0.404313 -0.916087
2004-11-22 08:59:08 51°12.27 2°48.236 14.053646 0.065345 0.404298 -0.882377
2004-11-22 09:00:24 51°12.146 2°47.902 14.071731 0.065345 0.404275 -0.882377
2004-11-22 09:01:25 51°12.045 2°47.629 14.087808 0.065345 0.404283 -0.882377
2004-11-22 09:02:46 51°11.912 2°47.264 14.110271 0.065345 0.40426 -0.916087
2004-11-22 09:04:20 51°11.755 2°46.84 14.13101 0.065345 0.404283 -0.882377
2004-11-22 09:05:18 51°11.659 2°46.576 14.147549 0.065345 0.404267 -0.882377
2004-11-22 09:06:28 51°11.541 2°46.262 14.16013 0.065345 0.404252 -0.882377
2004-11-22 09:07:34 51°11.432 2°45.961 14.179569 0.065345 0.404252 -0.882377
2004-11-22 09:09:00 51°11.295 2°45.564 14.207192 0.065345 0.404229 -0.916087
2004-11-22 09:10:04 51°11.229 2°45.242 14.213287 0.065345 0.404252 -0.882377
2004-11-22 09:11:30 51°11.138 2°44.811 14.233425 0.065345 0.404237 -0.882377
2004-11-22 09:12:52 51°11.051 2°44.403 14.253366 0.065345 0.404237 -0.916087
2004-11-22 09:14:12 51°10.964 2°44.002 14.272635 0.065345 0.404237 -0.916087
2004-11-22 09:15:12 51°10.899 2°43.701 14.29014 0.065345 0.404229 -0.882377
2004-11-22 09:16:12 51°10.836 2°43.4 14.302933 0.065345 0.404214 -0.916087
2004-11-22 09:17:24 51°10.758 2°43.04 14.329366 0.065345 0.404214 -0.882377
2004-11-22 09:19:12 51°10.652 2°42.501 14.359021 0.065345 0.40419 -0.882377
2004-11-22 09:20:13 51°10.625 2°42.183 14.377881 0.065345 0.404206 -0.882377
2004-11-22 09:21:21 51°10.572 2°41.833 14.385671 0.065448 0.404849 -0.882377
2004-11-22 09:22:21 51°10.527 2°41.523 14.405996 0.065345 0.404183 -0.916087
2004-11-22 09:23:20 51°10.483 2°41.22 14.413545 0.065448 0.404834 -0.882377
2004-11-22 09:24:48 51°10.418 2°40.771 14.433197 0.065448 0.404818 -0.882377
2004-11-22 09:25:55 51°10.368 2°40.431 14.457162 0.065345 0.404129 -0.882377
2004-11-22 09:27:15 51°10.31 2°40.021 14.469734 0.065448 0.404772 -0.882377
2004-11-22 09:28:30 51°10.256 2°39.648 14.495393 0.065448 0.404757 -0.882377
2004-11-22 09:29:32 51°10.22 2°39.336 14.52583 0.065448 0.404734 -0.916087
2004-11-22 09:30:32 51°10.184 2°39.04 14.530996 0.065448 0.404726 -0.882377
2004-11-22 09:31:42 51°10.142 2°38.694 14.555022 0.065448 0.404695 -0.882377
2004-11-22 09:33:00 51°10.098 2°38.298 14.580886 0.065448 0.40468 -0.916087
2004-11-22 09:34:24 51°10.047 2°37.869 14.598076 0.065448 0.404649 -0.882377
2004-11-22 09:35:39 51°10.001 2°37.485 14.621227 0.065448 0.404649 -0.882377
2004-11-22 09:37:34 51°9.931 2°36.897 14.651183 0.065448 0.404611 -0.882377
2004-11-22 09:38:40 51°9.921 2°36.557 14.671289 0.065448 0.404588 -0.882377
2004-11-22 09:39:46 51°9.915 2°36.218 14.696732 0.065448 0.404603 -0.916087
2004-11-22 09:40:52 51°10.004 2°35.912 14.711908 0.065448 0.404557 -0.916087
2004-11-22 09:41:53 51°10.213 2°35.809 14.729302 0.065448 0.404182 -0.916087
2004-11-22 09:42:54 51°10.436 2°35.963 14.759779 0.065448 0.404573 -0.882377
2004-11-22 09:43:56 51°10.657 2°36.156 14.825742 0.065448 0.404427 -0.916087
2004-11-22 09:44:57 51°10.873 2°36.362 14.85311 0.065448 0.404504 -0.916087
2004-11-22 09:45:55 51°11.074 2°36.564 14.881222 0.065448 0.404527 -0.882377
2004-11-22 09:47:09 51°11.329 2°36.822 14.918137 0.065448 0.404527 -0.916087
2004-11-22 09:48:18 51°11.569 2°37.056 14.953101 0.065448 0.404496 -0.882377
2004-11-22 09:49:18 51°11.777 2°37.255 14.973402 0.065448 0.404534 -0.882377
2004-11-22 09:50:24 51°12.003 2°37.48 14.998264 0.065448 0.40445 -0.882377
2004-11-22 09:51:24 51°12.213 2°37.687 15.017893 0.065552 0.405092 -0.916087
2004-11-22 09:52:22 51°12.412 2°37.894 15.057981 0.065448 0.404373 -0.916087
2004-11-22 09:53:40 51°12.683 2°38.154 15.078581 0.065552 0.404993 -0.848668
2004-11-22 09:54:38 51°12.883 2°38.35 15.086716 0.065552 0.405023 -0.882377
2004-11-22 09:55:40 51°13.099 2°38.565 15.101948 0.065552 0.405031 -0.916087
2004-11-22 09:56:40 51°13.318 2°38.729 15.132263 0.065448 0.40435 -0.916087
2004-11-22 09:57:42 51°13.546 2°38.877 15.155236 0.065552 0.404901 -0.916087
2004-11-22 09:58:58 51°13.838 2°38.906 15.177122 0.065552 0.404801 -0.882377
2004-11-22 10:00:26 51°14.152 2°38.769 15.211628 0.065552 0.404862 -0.916087
2004-11-22 10:01:23 51°14.229 2°38.501 15.229039 0.065552 0.404801 -0.882377
2004-11-22 10:02:49 51°14.139 2°38.088 15.258501 0.065552 0.404732 -0.882377
2004-11-22 10:03:50 51°14.063 2°37.794 15.275572 0.065552 0.404724 -0.882377
2004-11-22 10:05:17 51°13.957 2°37.382 15.311716 0.065552 0.404678 -0.882377
2004-11-22 10:07:00 51°13.828 2°36.889 15.344329 0.065552 0.404625 -0.882377
2004-11-22 10:08:36 51°13.714 2°36.426 15.377769 0.065552 0.404586 -0.882377
2004-11-22 10:09:57 51°13.617 2°36.038 15.40918 0.065552 0.404586 -0.882377
2004-11-22 10:11:38 51°13.491 2°35.563 15.437678 0.065552 0.404564 -0.916087
2004-11-22 10:12:36 51°13.418 2°35.286 15.463638 0.065552 0.404541 -0.882377
2004-11-22 10:13:56 51°13.317 2°34.9 15.48323 0.065552 0.404525 -0.882377
2004-11-22 10:15:15 51°13.218 2°34.522 15.507958 0.065552 0.404518 -0.882377
2004-11-22 10:16:51 51°13.093 2°34.064 15.540386 0.065552 0.40451 -0.916087
2004-11-22 10:18:18 51°12.972 2°33.657 15.568876 0.065552 0.404479 -0.916087
2004-11-22 10:19:27 51°12.876 2°33.334 15.588999 0.065552 0.404502 -0.916087
2004-11-22 10:20:35 51°12.781 2°33.016 15.611964 0.065552 0.404449 -0.882377
2004-11-22 10:21:51 51°12.678 2°32.664 15.63506 0.065552 0.404464 -0.882377
2004-11-22 10:23:26 51°12.547 2°32.225 15.67004 0.065552 0.404456 -0.882377
2004-11-22 10:25:04 51°12.41 2°31.767 15.69969 0.065552 0.404441 -0.916087
2004-11-22 10:26:22 51°12.301 2°31.404 15.722618 0.065656 0.405083 -0.882377
2004-11-22 10:28:34 51°12.114 2°30.789 15.766449 0.065552 0.404418 -0.882377
2004-11-22 10:29:40 51°12.023 2°30.48 15.784886 0.065552 0.404411 -0.916087
2004-11-22 10:31:04 51°11.907 2°30.079 15.807414 0.065552 0.40438 -0.882377
2004-11-22 10:32:04 51°11.823 2°29.798 15.825515 0.065552 0.404403 -0.882377
2004-11-22 10:33:04 51°11.741 2°29.52 15.845239 0.065552 0.404388 -0.882377
2004-11-22 10:34:27 51°11.625 2°29.128 15.867003 0.065552 0.40438 -0.848668
2004-11-22 10:36:04 51°11.487 2°28.668 15.894711 0.065552 0.404388 -0.882377
2004-11-22 10:37:10 51°11.403 2°28.353 15.916553 0.065552 0.404388 -0.882377
2004-11-22 10:38:26 51°11.324 2°27.977 15.931838 0.065552 0.40438 -0.882377
2004-11-22 10:39:53 51°11.232 2°27.538 15.953762 0.065552 0.404357 -0.848668
2004-11-22 10:40:50 51°11.173 2°27.247 15.97396 0.065552 0.404365 -0.882377
2004-11-22 10:41:57 51°11.102 2°26.909 15.987098 0.065552 0.404365 -0.882377
2004-11-22 10:42:56 51°11.041 2°26.613 16.005663 0.065552 0.404342 -0.882377
2004-11-22 10:43:58 51°10.981 2°26.296 16.018609 0.065552 0.404342 -0.882377
2004-11-22 10:45:18 51°10.934 2°25.88 16.04519 0.065552 0.404349 -0.916087
2004-11-22 10:46:26 51°10.892 2°25.526 16.061236 0.065552 0.404334 -0.882377
2004-11-22 10:47:42 51°10.923 2°25.127 16.081775 0.065552 0.404334 -0.916087
2004-11-22 10:48:50 51°11.139 2°24.958 16.119545 0.065552 0.404395 -0.882377
2004-11-22 10:49:50 51°11.378 2°25.001 16.128301 0.065552 0.404342 -0.882377
2004-11-22 10:51:06 51°11.676 2°25.171 16.158684 0.065656 0.404983 -0.916087
2004-11-22 10:52:07 51°11.886 2°25.388 16.176972 0.065656 0.40483 -0.882377
2004-11-22 10:53:07 51°12.079 2°25.649 16.188591 0.065552 0.404242 -0.882377
2004-11-22 10:54:24 51°12.32 2°25.992 16.204095 0.065552 0.404265 -0.882377
2004-11-22 10:56:13 51°12.659 2°26.478 16.237729 0.065656 0.404868 -0.916087
2004-11-22 10:57:32 51°12.903 2°26.835 16.238099 0.065552 0.404181 -0.882377
2004-11-22 10:58:37 51°13.112 2°27.117 16.279022 0.065656 0.404883 -0.882377
2004-11-22 10:59:38 51°13.298 2°27.392 16.289607 0.065656 0.404792 -0.882377
2004-11-22 11:00:37 51°13.478 2°27.659 16.288913 0.065656 0.404746 -0.882377
2004-11-22 11:01:46 51°13.69 2°27.955 16.318349 0.065656 0.404646 -0.916087
2004-11-22 11:02:54 51°13.904 2°28.266 16.335442 0.065656 0.404861 -0.882377
2004-11-22 11:04:00 51°14.107 2°28.565 16.364858 0.065656 0.404799 -0.882377
2004-11-22 11:05:00 51°14.289 2°28.837 16.376907 0.065656 0.404692 -0.916087
2004-11-22 11:06:13 51°14.517 2°29.165 16.411428 0.065656 0.404601 -0.882377
2004-11-22 11:07:27 51°14.741 2°29.505 16.417196 0.065656 0.404669 -0.882377
2004-11-22 11:08:28 51°14.93 2°29.781 16.442059 0.065656 0.404608 -0.882377
2004-11-22 11:09:31 51°15.121 2°30.071 16.440168 0.065656 0.404601 -0.882377
2004-11-22 11:10:32 51°15.308 2°30.344 16.47226 0.065656 0.404578 -0.882377
2004-11-22 11:11:49 51°15.543 2°30.689 16.486135 0.065656 0.404478 -0.916087
2004-11-22 11:12:49 51°15.729 2°30.958 16.515673 0.065656 0.404494 -0.882377
2004-11-22 11:14:00 51°15.95 2°31.281 16.511158 0.065656 0.404433 -0.882377
2004-11-22 11:15:00 51°16.137 2°31.559 16.552383 0.065656 0.404417 -0.882377
2004-11-22 11:16:00 51°16.321 2°31.83 16.568544 0.065656 0.404387 -0.882377
2004-11-22 11:17:12 51°16.547 2°32.157 16.576185 0.065656 0.404303 -0.882377
2004-11-22 11:18:21 51°16.759 2°32.473 16.592157 0.06576 0.404913 -0.916087
2004-11-22 11:19:23 51°16.95 2°32.756 16.59906 0.06576 0.404905 -0.916087
2004-11-22 11:20:22 51°17.132 2°33.017 16.607066 0.065656 0.404128 -0.916087
2004-11-22 11:21:22 51°17.314 2°33.304 16.64897 0.06576 0.404844 -0.916087
2004-11-22 11:22:32 51°17.535 2°33.622 16.62924 0.06576 0.404699 -0.882377
2004-11-22 11:23:38 51°17.74 2°33.921 16.645935 0.06576 0.404722 -0.882377
2004-11-22 11:24:44 51°17.942 2°34.219 16.673292 0.06576 0.404722 -0.882377
2004-11-22 11:25:42 51°18.118 2°34.477 16.705279 0.06576 0.404706 -0.882377
2004-11-22 11:26:49 51°18.317 2°34.773 16.705325 0.06576 0.404638 -0.882377
2004-11-22 11:28:07 51°18.542 2°35.135 16.720486 0.06576 0.404546 -0.882377
2004-11-22 11:29:11 51°18.711 2°35.458 16.73298 0.06576 0.404508 -0.916087
2004-11-22 11:30:28 51°18.913 2°35.855 16.754335 0.06576 0.404463 -0.882377
2004-11-22 11:31:57 51°19.155 2°36.308 16.771368 0.06576 0.404417 -0.916087
2004-11-22 11:33:18 51°19.369 2°36.722 16.798217 0.06576 0.404348 -0.916087
2004-11-22 11:34:34 51°19.575 2°37.098 16.825377 0.06576 0.404272 -0.916087
2004-11-22 11:36:00 51°19.798 2°37.53 16.831432 0.06576 0.404249 -0.916087
2004-11-22 11:37:08 51°19.974 2°37.876 16.843035 0.06576 0.404219 -0.916087
2004-11-22 11:38:08 51°20.124 2°38.182 16.859359 0.06576 0.40412 -0.882377
2004-11-22 11:39:08 51°20.288 2°38.466 16.887366 0.06576 0.404143 -0.916087
2004-11-22 11:40:22 51°20.493 2°38.828 16.907437 0.065864 0.404721 -0.916087
2004-11-22 11:41:33 51°20.691 2°39.15 16.917562 0.065864 0.404721 -0.916087
2004-11-22 11:42:37 51°20.867 2°39.462 16.895249 0.065864 0.404652 -0.916087
2004-11-22 11:43:42 51°21.05 2°39.751 16.925761 0.065864 0.404515 -0.916087
2004-11-22 11:44:46 51°21.263 2°39.939 16.947241 0.065864 0.404554 -0.882377
2004-11-22 11:45:51 51°21.521 2°39.945 16.957497 0.065864 0.404523 -0.882377
2004-11-22 11:47:00 51°21.795 2°39.958 16.982903 0.065864 0.404531 -0.882377
2004-11-22 11:48:00 51°22.03 2°39.981 17.002809 0.065864 0.404508 -0.882377
2004-11-22 11:49:00 51°22.268 2°40.011 17.005509 0.065864 0.404447 -0.882377
2004-11-22 11:49:58 51°22.5 2°40.025 17.018868 0.065864 0.404424 -0.882377
2004-11-22 11:51:05 51°22.764 2°40.045 17.026918 0.065864 0.404363 -0.882377
2004-11-22 11:52:05 51°23.003 2°40.057 17.033779 0.065864 0.404295 -0.882377
2004-11-22 11:53:28 51°23.335 2°40.077 17.05518 0.065864 0.404272 -0.882377
2004-11-22 11:54:50 51°23.66 2°40.14 17.056414 0.065968 0.404781 -0.882377
2004-11-22 11:55:56 51°23.925 2°40.196 17.078814 0.065968 0.404834 -0.882377
2004-11-22 11:56:54 51°24.158 2°40.256 17.086172 0.065968 0.404857 -0.882377
2004-11-22 11:58:07 51°24.449 2°40.319 17.103628 0.065968 0.404758 -0.916087
2004-11-22 11:59:08 51°24.696 2°40.372 17.116877 0.065968 0.40466 -0.882377
2004-11-22 12:00:14 51°24.96 2°40.44 17.132407 0.065968 0.404705 -0.882377
2004-11-22 12:01:22 51°25.233 2°40.523 17.143504 0.065968 0.404644 -0.916087
2004-11-22 12:02:28 51°25.497 2°40.598 17.146472 0.065968 0.404538 -0.882377
2004-11-22 12:03:28 51°25.736 2°40.656 17.154828 0.065968 0.4045 -0.882377
2004-11-22 12:04:27 51°25.948 2°40.826 17.171856 0.065968 0.404447 -0.916087
2004-11-22 12:05:32 51°26.173 2°41.048 17.182491 0.065968 0.40444 -0.882377
2004-11-22 12:06:37 51°26.386 2°41.296 17.183997 0.065968 0.404303 -0.882377
2004-11-22 12:07:42 51°26.567 2°41.613 17.200197 0.065968 0.404303 -0.882377
2004-11-22 12:08:48 51°26.692 2°41.991 17.220316 0.066072 0.404925 -0.882377
2004-11-22 12:09:52 51°26.787 2°42.371 17.229575 0.066072 0.404887 -0.882377
2004-11-22 12:10:56 51°26.857 2°42.762 17.238468 0.066072 0.404743 -0.882377
2004-11-22 12:11:57 51°26.931 2°43.131 17.249777 0.066072 0.404743 -0.882377
2004-11-22 12:13:11 51°27.022 2°43.575 17.263819 0.066072 0.404743 -0.882377
2004-11-22 12:14:10 51°27.071 2°43.934 17.274258 0.066072 0.404735 -0.916087
2004-11-22 12:15:08 51°26.994 2°44.264 17.286792 0.066072 0.404591 -0.882377
2004-11-22 12:16:11 51°26.849 2°44.565 17.301328 0.066072 0.404584 -0.916087
2004-11-22 12:17:17 51°26.699 2°44.883 17.316134 0.066072 0.404561 -0.916087
2004-11-22 12:18:18 51°26.529 2°45.118 17.330345 0.066072 0.404493 -0.882377
2004-11-22 12:19:31 51°26.315 2°45.378 17.349153 0.066072 0.404447 -0.882377
2004-11-22 12:20:43 51°26.105 2°45.636 17.36486 0.066072 0.404463 -0.916087
2004-11-22 12:21:44 51°25.952 2°45.897 17.385069 0.066072 0.40447 -0.882377
2004-11-22 12:22:48 51°25.925 2°46.27 17.393078 0.066072 0.404372 -0.882377
2004-11-22 12:23:50 51°25.989 2°46.652 17.405863 0.066072 0.404273 -0.916087
2004-11-22 12:25:17 51°26.082 2°47.192 17.430473 0.066176 0.404819 -0.882377
2004-11-22 12:26:24 51°26.157 2°47.593 17.438613 0.066176 0.404819 -0.882377
2004-11-22 12:27:25 51°26.24 2°47.95 17.452936 0.066176 0.404796 -0.882377
2004-11-22 12:28:37 51°26.392 2°48.343 17.46712 0.066176 0.404751 -0.882377
2004-11-22 12:29:42 51°26.526 2°48.701 17.481483 0.066176 0.404682 -0.882377
2004-11-22 12:30:59 51°26.736 2°49.043 17.497706 0.066176 0.404735 -0.916087
2004-11-22 12:32:06 51°26.991 2°49.103 17.490799 0.066176 0.404509 -0.916087
2004-11-22 12:33:10 51°27.241 2°49.116 17.506339 0.066176 0.404546 -0.882377
2004-11-22 12:34:10 51°27.48 2°49.135 17.51606 0.066176 0.404592 -0.882377
2004-11-22 12:35:17 51°27.744 2°49.158 17.52519 0.066176 0.404486 -0.882377
2004-11-22 12:36:20 51°27.991 2°49.185 17.53609 0.06628 0.405068 -0.916087
2004-11-22 12:37:28 51°28.255 2°49.219 17.547488 0.06628 0.404962 -0.916087
2004-11-22 12:38:32 51°28.506 2°49.253 17.557159 0.06628 0.405031 -0.916087
2004-11-22 12:39:40 51°28.757 2°49.385 17.570459 0.06628 0.405015 -0.882377
2004-11-22 12:40:46 51°28.905 2°49.717 17.583576 0.06628 0.40494 -0.882377
2004-11-22 12:41:50 51°28.998 2°50.096 17.595012 0.06628 0.404864 -0.882377
2004-11-22 12:42:50 51°29.086 2°50.453 17.597462 0.06628 0.404849 -0.882377
2004-11-22 12:44:04 51°29.183 2°50.896 17.619873 0.06628 0.404774 -0.882377
2004-11-22 12:45:03 51°29.263 2°51.253 17.625951 0.06628 0.404736 -0.882377
2004-11-22 12:46:04 51°29.346 2°51.62 17.631348 0.06628 0.404668 -0.916087
2004-11-22 12:47:09 51°29.386 2°52.021 17.623864 0.06628 0.404547 -0.882377
2004-11-22 12:48:11 51°29.259 2°52.308 17.647673 0.06628 0.404585 -0.882377
2004-11-22 12:49:19 51°29.025 2°52.415 17.655743 0.06628 0.404524 -0.916087
2004-11-22 12:50:19 51°28.82 2°52.519 17.671065 0.06628 0.404509 -0.882377
2004-11-22 12:51:19 51°28.615 2°52.63 17.683574 0.06628 0.404457 -0.882377
2004-11-22 12:52:24 51°28.391 2°52.745 17.697078 0.066384 0.405031 -0.882377
2004-11-22 12:53:28 51°28.172 2°52.86 17.710806 0.066384 0.404993 -0.882377
2004-11-22 12:54:30 51°27.959 2°52.969 17.723353 0.066384 0.404985 -0.916087
2004-11-22 12:55:30 51°27.754 2°53.071 17.735626 0.066384 0.40494 -0.916087
2004-11-22 12:56:37 51°27.524 2°53.184 17.750026 0.066384 0.40494 -0.916087
2004-11-22 12:57:36 51°27.324 2°53.289 17.761706 0.066384 0.404872 -0.916087
2004-11-22 12:58:36 51°27.117 2°53.395 17.776281 0.066384 0.404827 -0.916087
2004-11-22 12:59:36 51°26.911 2°53.5 17.790356 0.066384 0.404782 -0.916087
2004-11-22 13:00:42 51°26.685 2°53.616 17.802527 0.066384 0.404782 -0.882377
2004-11-22 13:01:41 51°26.48 2°53.715 17.815058 0.066384 0.404684 -0.882377
2004-11-22 13:02:38 51°26.284 2°53.818 17.826502 0.066384 0.404684 -0.848668
2004-11-22 13:03:48 51°26.039 2°53.927 17.841923 0.066384 0.404684 -0.882377
2004-11-22 13:04:54 51°25.806 2°54.005 17.853769 0.066384 0.404608 -0.882377
2004-11-22 13:05:52 51°25.599 2°54.07 17.869501 0.066384 0.404616 -0.916087
2004-11-22 13:06:56 51°25.372 2°54.141 17.873026 0.066488 0.405182 -0.916087
2004-11-22 13:07:54 51°25.167 2°54.21 17.888799 0.066488 0.405174 -0.882377
2004-11-22 13:09:01 51°24.932 2°54.286 17.901948 0.066488 0.405152 -0.882377
2004-11-22 13:10:00 51°24.726 2°54.354 17.911615 0.066488 0.405129 -0.882377
2004-11-22 13:11:13 51°24.469 2°54.439 17.929592 0.066488 0.405076 -0.848668
2004-11-22 13:12:14 51°24.252 2°54.51 17.937947 0.066488 0.405099 -0.916087
2004-11-22 13:13:14 51°24.038 2°54.578 17.955014 0.066488 0.405054 -0.882377
2004-11-22 13:14:14 51°23.825 2°54.648 17.960838 0.066488 0.405046 -0.882377
2004-11-22 13:15:13 51°23.617 2°54.718 17.970588 0.066488 0.404986 -0.882377
2004-11-22 13:16:30 51°23.344 2°54.803 17.983 0.066488 0.404956 -0.882377
2004-11-22 13:17:58 51°23.033 2°54.897 18.000417 0.066488 0.404986 -0.882377
2004-11-22 13:18:58 51°22.818 2°54.956 18.009485 0.066488 0.404858 -0.916087
2004-11-22 13:19:58 51°22.6 2°55.016 18.022522 0.066488 0.40488 -0.882377
2004-11-22 13:21:20 51°22.3 2°55.099 18.04002 0.066488 0.40485 -0.916087
2004-11-22 13:22:29 51°22.048 2°55.168 18.05278 0.066488 0.404828 -0.882377
2004-11-22 13:23:49 51°21.76 2°55.253 18.064366 0.066488 0.404805 -0.916087
2004-11-22 13:24:48 51°21.548 2°55.315 18.075274 0.066592 0.405483 -0.882377
2004-11-22 13:25:56 51°21.301 2°55.38 18.085459 0.066592 0.405408 -0.882377
2004-11-22 13:26:56 51°21.089 2°55.481 18.092489 0.066592 0.405355 -0.882377
2004-11-22 13:27:56 51°20.878 2°55.592 18.103572 0.066488 0.404707 -0.916087
2004-11-22 13:28:56 51°20.668 2°55.698 18.108978 0.066592 0.40537 -0.882377
2004-11-22 13:29:56 51°20.457 2°55.796 18.11542 0.066592 0.405295 -0.848668
2004-11-22 13:30:54 51°20.254 2°55.886 18.123438 0.066592 0.405302 -0.882377
2004-11-22 13:31:56 51°20.032 2°55.952 18.1315 0.066592 0.405325 -0.882377
2004-11-22 13:32:54 51°19.823 2°56.01 18.135012 0.066592 0.40537 -0.916087
2004-11-22 13:34:14 51°19.532 2°56.074 18.149466 0.066592 0.40528 -0.882377
2004-11-22 13:35:14 51°19.344 2°55.956 18.161532 0.066592 0.40528 -0.882377
2004-11-22 13:36:12 51°19.232 2°55.689 18.167429 0.066592 0.40522 -0.882377
2004-11-22 13:37:14 51°19.127 2°55.38 18.176656 0.066592 0.405205 -0.882377
2004-11-22 13:38:14 51°19.026 2°55.073 18.186196 0.066592 0.405182 -0.848668
2004-11-22 13:39:24 51°18.91 2°54.708 18.196456 0.066592 0.405167 -0.882377
2004-11-22 13:40:26 51°18.809 2°54.384 18.205094 0.066592 0.405144 -0.882377
2004-11-22 13:41:26 51°18.712 2°54.069 18.214046 0.066592 0.405144 -0.848668
2004-11-22 13:42:32 51°18.606 2°53.721 18.221468 0.066592 0.405099 -0.916087
2004-11-22 13:43:32 51°18.51 2°53.407 18.226326 0.066696 0.405762 -0.882377
2004-11-22 13:44:42 51°18.4 2°53.045 18.236309 0.066592 0.405092 -0.916087
2004-11-22 13:45:58 51°18.279 2°52.653 18.246562 0.066592 0.405069 -0.916087
2004-11-22 13:46:58 51°18.179 2°52.341 18.257756 0.066592 0.405084 -0.916087
2004-11-22 13:47:58 51°17.988 2°52.203 18.261038 0.066592 0.405099 -0.882377
2004-11-22 13:48:58 51°17.771 2°52.235 18.266342 0.066592 0.405024 -0.916087
2004-11-22 13:49:58 51°17.55 2°52.276 18.27677 0.066592 0.405054 -0.882377
2004-11-22 13:51:06 51°17.308 2°52.369 18.276905 0.066592 0.405107 -0.882377
2004-11-22 13:52:03 51°17.111 2°52.486 18.286792 0.066592 0.404971 -0.882377
2004-11-22 13:53:16 51°16.86 2°52.642 18.286522 0.066696 0.405702 -0.882377
2004-11-22 13:54:16 51°16.656 2°52.791 18.299463 0.066696 0.405596 -0.882377
2004-11-22 13:55:15 51°16.457 2°52.947 18.303911 0.066696 0.405611 -0.882377
2004-11-22 13:56:13 51°16.26 2°53.089 18.311728 0.066696 0.405596 -0.882377
2004-11-22 13:57:16 51°16.044 2°53.235 18.320038 0.066696 0.405596 -0.882377
2004-11-22 13:58:40 51°15.754 2°53.43 18.321251 0.066696 0.405574 -0.882377
2004-11-22 13:59:45 51°15.528 2°53.579 18.328167 0.066696 0.405581 -0.848668
2004-11-22 14:00:45 51°15.323 2°53.723 18.325113 0.066696 0.405513 -0.882377
2004-11-22 14:02:08 51°15.052 2°53.951 18.328482 0.066696 0.405513 -0.916087
2004-11-22 14:03:17 51°14.858 2°54.173 18.338317 0.066696 0.405461 -0.882377
2004-11-22 14:04:22 51°14.721 2°54.43 18.344378 0.066696 0.405476 -0.882377
2004-11-22 14:05:47 51°14.532 2°54.779 18.350485 0.066696 0.405423 -0.882377
2004-11-22 14:06:45 51°14.405 2°55.016 18.362337 0.066696 0.405393 -0.882377
2004-11-22 14:07:54 51°14.255 2°55.281 18.36687 0.066696 0.405363 -0.882377
2004-11-22 14:09:09 51°14.088 2°55.444 18.376027 0.066696 0.405378 -0.916087
2004-11-22 14:10:22 51°13.94 2°55.55 18.381323 0.066696 0.40534 -0.882377
2004-11-22 14:11:21 51°13.815 2°55.643 18.385945 0.066696 0.405318 -0.882377
2004-11-22 14:12:39 51°13.699 2°55.812 18.389894 0.066696 0.405288 -0.916087
2004-11-22 14:14:24 51°13.631 2°56.021 18.398868 0.066696 0.40525 -0.882377
2004-11-22 14:15:43 51°13.617 2°56.06 18.408828 0.066696 0.405243 -0.882377